createdAt,value
2023-04-02T00:02:32.191Z,100.00
2023-04-02T00:05:50.507Z,100.00
2023-04-02T00:08:29.346Z,100.00
2023-04-02T00:11:00.461Z,100.00
2023-04-02T00:13:33.388Z,100.00
2023-04-02T00:16:05.564Z,100.00
2023-04-02T00:18:35.150Z,100.00
2023-04-02T00:25:42.829Z,100.00
2023-04-02T00:28:14.879Z,100.00
2023-04-02T00:30:49.180Z,100.00
2023-04-02T00:33:21.389Z,100.00
2023-04-02T00:35:51.533Z,100.00
2023-04-02T00:38:23.968Z,100.00
2023-04-02T00:40:53.897Z,100.00
2023-04-02T00:43:22.847Z,100.00
2023-04-02T00:45:56.276Z,100.00
2023-04-02T00:48:46.511Z,100.00
2023-04-02T00:51:18.973Z,100.00
2023-04-02T00:53:48.792Z,100.00
2023-04-02T00:56:25.682Z,100.00
2023-04-02T00:59:21.221Z,100.00
2023-04-02T01:01:54.455Z,100.00
2023-04-02T01:04:34.555Z,100.00
2023-04-02T01:07:08.766Z,100.00
2023-04-02T01:10:02.459Z,100.00
2023-04-02T01:12:45.851Z,100.00
2023-04-02T01:15:20.846Z,100.00
2023-04-02T01:18:03.388Z,100.00
2023-04-02T01:21:01.882Z,100.00
2023-04-02T01:23:36.722Z,100.00
2023-04-02T01:26:15.229Z,100.00
2023-04-02T01:28:58.381Z,100.00
2023-04-02T01:31:29.207Z,100.00
2023-04-02T01:33:58.028Z,100.00
2023-04-02T01:36:33.628Z,100.00
2023-04-02T01:39:08.920Z,100.00
2023-04-02T01:41:43.006Z,100.00
2023-04-02T01:44:18.461Z,100.00
2023-04-02T01:46:50.103Z,100.00
2023-04-02T01:49:21.706Z,100.00
2023-04-02T01:51:53.752Z,100.00
2023-04-02T01:54:23.878Z,100.00
2023-04-02T01:56:52.802Z,100.00
2023-04-02T01:59:24.236Z,100.00
2023-04-02T02:02:02.244Z,100.00
2023-04-02T02:04:33.010Z,100.00
2023-04-02T02:07:02.594Z,100.00
2023-04-02T02:09:35.604Z,100.00
2023-04-02T02:12:05.307Z,100.00
2023-04-02T02:14:34.691Z,100.00
2023-04-02T02:17:04.352Z,100.00
2023-04-02T02:19:36.819Z,100.00
2023-04-02T02:22:12.074Z,100.00
2023-04-02T02:24:41.163Z,100.00
2023-04-02T02:27:43.528Z,100.00
2023-04-02T02:30:17.354Z,100.00
2023-04-02T02:32:55.590Z,100.00
2023-04-02T02:35:28.313Z,100.00
2023-04-02T02:38:04.932Z,100.00
2023-04-02T02:40:38.090Z,100.00
2023-04-02T02:43:11.421Z,100.00
2023-04-02T02:45:44.300Z,100.00
2023-04-02T02:48:16.435Z,100.00
2023-04-02T02:50:46.020Z,100.00
2023-04-02T02:53:22.042Z,100.00
2023-04-02T02:55:55.656Z,100.00
2023-04-02T02:58:31.446Z,100.00
2023-04-02T03:01:08.978Z,100.00
2023-04-02T03:03:40.650Z,100.00
2023-04-02T03:06:16.712Z,100.00
2023-04-02T03:08:54.989Z,100.00
2023-04-02T03:11:34.540Z,100.00
2023-04-02T03:14:14.669Z,100.00
2023-04-02T03:16:47.717Z,100.00
2023-04-02T03:19:27.363Z,100.00
2023-04-02T03:22:03.192Z,100.00
2023-04-02T03:24:41.582Z,100.00
2023-04-02T03:27:17.368Z,100.00
2023-04-02T03:29:52.591Z,100.00
2023-04-02T03:32:24.439Z,100.00
2023-04-02T03:34:56.523Z,100.00
2023-04-02T03:37:31.049Z,100.00
2023-04-02T03:40:04.641Z,100.00
2023-04-02T03:42:41.729Z,100.00
2023-04-02T03:45:16.470Z,100.00
2023-04-02T03:47:52.407Z,100.00
2023-04-02T03:50:27.213Z,100.00
2023-04-02T03:52:58.612Z,100.00
2023-04-02T03:55:30.925Z,100.00
2023-04-02T03:58:04.732Z,100.00
2023-04-02T04:00:41.448Z,100.00
2023-04-02T04:03:16.279Z,100.00
2023-04-02T04:05:49.493Z,100.00
2023-04-02T04:08:21.265Z,100.00
2023-04-02T04:10:53.807Z,100.00
2023-04-02T04:13:26.006Z,100.00
2023-04-02T04:15:59.537Z,100.00
2023-04-02T04:18:37.954Z,100.00
2023-04-02T04:21:29.997Z,100.00
2023-04-02T04:24:07.267Z,100.00
2023-04-02T04:26:44.167Z,100.00
2023-04-02T04:29:28.323Z,100.00
2023-04-02T04:31:57.334Z,100.00
2023-04-02T04:34:46.736Z,100.00
2023-04-02T04:37:25.282Z,100.00
2023-04-02T04:39:59.018Z,100.00
2023-04-02T04:42:31.571Z,100.00
2023-04-02T04:45:05.197Z,100.00
2023-04-02T04:47:37.923Z,100.00
2023-04-02T04:50:14.733Z,100.00
2023-04-02T04:52:44.448Z,100.00
2023-04-02T04:55:38.008Z,100.00
2023-04-02T04:58:16.322Z,100.00
2023-04-02T05:00:55.274Z,100.00
2023-04-02T05:03:31.221Z,100.00
2023-04-02T05:06:09.738Z,100.00
2023-04-02T05:08:45.378Z,100.00
2023-04-02T05:11:21.140Z,100.00
2023-04-02T05:13:54.420Z,100.00
2023-04-02T05:16:27.491Z,100.00
2023-04-02T05:19:03.785Z,100.00
2023-04-02T05:21:42.130Z,100.00
2023-04-02T05:24:34.752Z,100.00
2023-04-02T05:27:11.030Z,100.00
2023-04-02T05:29:45.267Z,100.00
2023-04-02T05:32:18.731Z,100.00
2023-04-02T05:34:51.685Z,100.00
2023-04-02T05:37:24.484Z,100.00
2023-04-02T05:39:56.941Z,100.00
2023-04-02T05:42:28.659Z,100.00
2023-04-02T05:45:21.482Z,100.00
2023-04-02T05:47:54.741Z,100.00
2023-04-02T05:50:31.677Z,100.00
2023-04-02T05:53:07.798Z,100.00
2023-04-02T05:55:46.824Z,100.00
2023-04-02T05:58:35.649Z,100.00
2023-04-02T06:01:21.095Z,100.00
2023-04-02T06:03:58.409Z,100.00
2023-04-02T06:06:43.588Z,100.00
2023-04-02T06:09:19.326Z,100.00
2023-04-02T06:11:53.796Z,100.00
2023-04-02T06:14:22.183Z,100.00
2023-04-02T06:16:50.646Z,100.00
2023-04-02T06:19:24.850Z,100.00
2023-04-02T06:21:59.594Z,100.00
2023-04-02T06:24:32.043Z,100.00
2023-04-02T06:27:06.348Z,100.00
2023-04-02T06:29:39.778Z,100.00
2023-04-02T06:32:12.541Z,100.00
2023-04-02T06:34:44.082Z,100.00
2023-04-02T06:37:22.748Z,100.00
2023-04-02T06:39:58.431Z,100.00
2023-04-02T06:42:32.008Z,100.00
2023-04-02T06:45:07.776Z,100.00
2023-04-02T06:47:53.467Z,100.00
2023-04-02T06:50:47.069Z,100.00
2023-04-02T06:53:23.097Z,100.00
2023-04-02T06:55:56.701Z,100.00
2023-04-02T06:58:29.017Z,100.00
2023-04-02T07:00:58.387Z,100.00
2023-04-02T07:03:43.013Z,100.00
2023-04-02T07:06:22.078Z,100.00
2023-04-02T07:09:17.844Z,100.00
2023-04-02T07:11:51.691Z,100.00
2023-04-02T07:14:21.040Z,100.00
2023-04-02T07:16:49.255Z,100.00
2023-04-02T07:19:20.492Z,100.00
2023-04-02T07:21:50.440Z,100.00
2023-04-02T07:24:20.870Z,100.00
2023-04-02T07:26:48.955Z,100.00
2023-04-02T07:29:19.927Z,100.00
2023-04-02T07:31:47.879Z,100.00
2023-04-02T07:34:16.092Z,100.00
2023-04-02T07:36:44.101Z,100.00
2023-04-02T07:39:12.244Z,100.00
2023-04-02T07:41:53.116Z,100.00
2023-04-02T07:44:22.639Z,100.00
2023-04-02T07:46:50.740Z,100.00
2023-04-02T07:49:18.799Z,100.00
2023-04-02T07:51:47.481Z,100.00
2023-04-02T07:54:15.539Z,100.00
2023-04-02T07:56:43.752Z,100.00
2023-04-02T07:59:12.012Z,100.00
2023-04-02T08:01:43.136Z,100.00
2023-04-02T08:04:19.487Z,100.00
2023-04-02T08:06:48.002Z,100.00
2023-04-02T08:09:17.075Z,100.00
2023-04-02T08:11:46.642Z,100.00
2023-04-02T08:14:15.114Z,100.00
2023-04-02T08:16:49.963Z,100.00
2023-04-02T08:19:18.738Z,100.00
2023-04-02T08:21:48.141Z,100.00
2023-04-02T08:24:19.066Z,100.00
2023-04-02T08:26:47.540Z,100.00
2023-04-02T08:29:15.840Z,100.00
2023-04-02T08:31:44.036Z,100.00
2023-04-02T08:34:13.808Z,100.00
2023-04-02T08:36:45.031Z,100.00
2023-04-02T08:39:13.499Z,100.00
2023-04-02T08:41:46.869Z,100.00
2023-04-02T08:44:32.257Z,100.00
2023-04-02T08:47:04.179Z,100.00
2023-04-02T08:49:37.456Z,100.00
2023-04-02T08:52:05.624Z,100.00
2023-04-02T08:54:38.099Z,100.00
2023-04-02T08:57:16.464Z,100.00
2023-04-02T08:59:47.168Z,100.00
2023-04-02T09:02:28.633Z,100.00
2023-04-02T09:05:03.299Z,100.00
2023-04-02T09:07:33.662Z,100.00
2023-04-02T09:10:01.993Z,100.00
2023-04-02T09:12:32.727Z,100.00
2023-04-02T09:15:12.803Z,100.00
2023-04-02T09:17:53.110Z,100.00
2023-04-02T09:20:26.293Z,100.00
2023-04-02T09:22:56.720Z,100.00
2023-04-02T09:25:27.365Z,100.00
2023-04-02T09:27:58.098Z,100.00
2023-04-02T09:30:41.939Z,100.00
2023-04-02T09:33:10.883Z,100.00
2023-04-02T09:35:56.544Z,100.00
2023-04-02T09:38:29.034Z,100.00
2023-04-02T09:41:01.620Z,100.00
2023-04-02T09:43:31.120Z,100.00
2023-04-02T09:46:01.875Z,100.00
2023-04-02T09:48:33.636Z,100.00
2023-04-02T09:51:11.739Z,100.00
2023-04-02T09:53:42.602Z,100.00
2023-04-02T09:56:12.372Z,100.00
2023-04-02T09:58:40.753Z,100.00
2023-04-02T10:01:27.762Z,100.00
2023-04-02T10:03:56.299Z,100.00
2023-04-02T10:06:26.979Z,100.00
2023-04-02T10:08:55.891Z,100.00
2023-04-02T10:11:36.572Z,100.00
2023-04-02T10:14:39.983Z,100.00
2023-04-02T10:17:15.477Z,100.00
2023-04-02T10:19:48.433Z,100.00
2023-04-02T10:22:19.720Z,100.00
2023-04-02T10:24:48.301Z,100.00
2023-04-02T10:27:28.851Z,100.00
2023-04-02T10:30:09.039Z,100.00
2023-04-02T10:32:42.020Z,100.00
2023-04-02T10:35:20.790Z,100.00
2023-04-02T10:38:17.301Z,100.00
2023-04-02T10:40:50.168Z,100.00
2023-04-02T10:43:49.620Z,100.00
2023-04-02T10:46:25.575Z,100.00
2023-04-02T10:49:03.718Z,100.00
2023-04-02T10:51:39.949Z,100.00
2023-04-02T10:54:28.054Z,100.00
2023-04-02T10:57:06.592Z,100.00
2023-04-02T10:59:38.215Z,100.00
2023-04-02T11:02:22.371Z,100.00
2023-04-02T11:04:55.982Z,100.00
2023-04-02T11:07:30.074Z,100.00
2023-04-02T11:10:01.015Z,100.00
2023-04-02T11:12:42.226Z,100.00
2023-04-02T11:15:17.744Z,100.00
2023-04-02T11:17:46.724Z,100.00
2023-04-02T11:21:04.023Z,100.00
2023-04-02T11:23:59.670Z,100.00
2023-04-02T11:26:41.221Z,100.00
2023-04-02T11:29:18.163Z,100.00
2023-04-02T11:31:47.308Z,100.00
2023-04-02T11:34:17.442Z,100.00
2023-04-02T11:37:09.591Z,100.00
2023-04-02T11:39:53.643Z,100.00
2023-04-02T11:42:31.662Z,100.00
2023-04-02T11:45:02.625Z,100.00
2023-04-02T11:47:31.126Z,100.00
2023-04-02T11:50:07.802Z,100.00
2023-04-02T11:52:52.174Z,100.00
2023-04-02T11:55:27.950Z,100.00
2023-04-02T11:58:24.854Z,100.00
2023-04-02T12:01:31.575Z,100.00
2023-04-02T12:04:34.808Z,100.00
2023-04-02T12:07:20.950Z,100.00
2023-04-02T12:09:52.215Z,100.00
2023-04-02T12:12:28.129Z,100.00
2023-04-02T12:14:58.974Z,100.00
2023-04-02T12:17:31.162Z,100.00
2023-04-02T12:20:04.362Z,100.00
2023-04-02T12:22:35.369Z,100.00
2023-04-02T12:25:07.415Z,100.00
2023-04-02T12:27:38.163Z,100.00
2023-04-02T12:30:17.807Z,100.00
2023-04-02T12:32:46.423Z,100.00
2023-04-02T12:35:29.427Z,100.00
2023-04-02T12:37:58.297Z,100.00
2023-04-02T12:40:27.193Z,100.00
2023-04-02T12:42:55.513Z,100.00
2023-04-02T12:45:29.284Z,100.00
2023-04-02T12:47:58.972Z,100.00
2023-04-02T12:50:27.461Z,100.00
2023-04-02T12:52:59.033Z,100.00
2023-04-02T12:55:28.424Z,100.00
2023-04-02T12:57:58.006Z,100.00
2023-04-02T13:00:36.030Z,100.00
2023-04-02T13:03:19.576Z,100.00
2023-04-02T13:05:52.345Z,100.00
2023-04-02T13:08:23.767Z,100.00
2023-04-02T13:10:57.845Z,100.00
2023-04-02T13:13:33.953Z,100.00
2023-04-02T13:16:22.929Z,100.00
2023-04-02T13:18:51.632Z,100.00
2023-04-02T13:21:28.697Z,100.00
2023-04-02T13:23:57.155Z,100.00
2023-04-02T13:26:27.698Z,99.93
2023-04-02T13:29:01.803Z,100.00
2023-04-02T13:31:33.293Z,100.00
2023-04-02T13:34:01.529Z,98.09
2023-04-02T13:36:29.930Z,97.66
2023-04-02T13:38:58.612Z,100.00
2023-04-02T13:41:29.133Z,100.00
2023-04-02T13:44:00.771Z,97.34
2023-04-02T13:46:33.842Z,99.83
2023-04-02T13:49:02.972Z,97.18
2023-04-02T13:51:37.449Z,100.00
2023-04-02T13:54:10.313Z,90.42
2023-04-02T13:56:38.590Z,96.80
2023-04-02T13:59:07.495Z,91.04
2023-04-02T14:01:37.560Z,96.49
2023-04-02T14:04:10.082Z,95.77
2023-04-02T14:07:13.457Z,93.34
2023-04-02T14:09:54.020Z,89.42
2023-04-02T14:12:35.808Z,90.22
2023-04-02T14:15:20.277Z,84.94
2023-04-02T14:18:04.805Z,88.17
2023-04-02T14:20:43.468Z,85.37
2023-04-02T14:23:32.091Z,81.14
2023-04-02T14:26:11.532Z,78.16
2023-04-02T14:28:51.172Z,78.68
2023-04-02T14:31:27.889Z,79.89
2023-04-02T14:34:04.314Z,82.45
2023-04-02T14:36:39.581Z,75.94
2023-04-02T14:39:40.183Z,78.13
2023-04-02T14:42:15.755Z,77.64
2023-04-02T14:44:50.203Z,80.41
2023-04-02T14:47:23.515Z,74.58
2023-04-02T14:49:58.113Z,77.43
2023-04-02T14:52:30.031Z,74.25
2023-04-02T14:55:03.608Z,70.99
2023-04-02T14:57:33.879Z,76.48
2023-04-02T15:00:05.677Z,71.77
2023-04-02T15:02:45.038Z,79.05
2023-04-02T15:05:20.132Z,78.58
2023-04-02T15:07:53.194Z,74.45
2023-04-02T15:10:27.395Z,83.20
2023-04-02T15:12:57.951Z,83.04
2023-04-02T15:15:40.497Z,78.91
2023-04-02T15:18:14.194Z,73.67
2023-04-02T15:20:54.732Z,79.10
2023-04-02T15:23:37.417Z,75.35
2023-04-02T15:26:16.911Z,68.89
2023-04-02T15:28:49.417Z,62.42
2023-04-02T15:31:18.525Z,59.76
2023-04-02T15:33:54.841Z,63.66
2023-04-02T15:36:44.631Z,53.27
2023-04-02T15:39:51.203Z,60.96
2023-04-02T15:42:23.167Z,58.67
2023-04-02T15:45:19.226Z,59.58
2023-04-02T15:48:07.469Z,62.41
2023-04-02T15:50:52.742Z,64.41
2023-04-02T15:53:34.574Z,59.52
2023-04-02T15:56:15.684Z,56.04
2023-04-02T15:59:11.701Z,51.98
2023-04-02T16:01:54.032Z,56.92
2023-04-02T16:04:52.584Z,55.73
2023-04-02T16:07:46.654Z,59.43
2023-04-02T16:10:33.883Z,55.15
2023-04-02T16:13:18.620Z,56.45
2023-04-02T16:15:52.699Z,53.31
2023-04-02T16:18:28.872Z,58.01
2023-04-02T16:21:02.461Z,60.33
2023-04-02T16:23:35.215Z,52.22
2023-04-02T16:26:18.340Z,53.38
2023-04-02T16:28:56.737Z,47.13
2023-04-02T16:31:31.512Z,49.81
2023-04-02T16:34:06.566Z,61.50
2023-04-02T16:36:44.421Z,53.96
2023-04-02T16:39:26.921Z,51.86
2023-04-02T16:42:06.450Z,60.24
2023-04-02T16:44:45.862Z,55.50
2023-04-02T16:47:30.889Z,54.44
2023-04-02T16:50:12.627Z,57.54
2023-04-02T16:53:14.988Z,54.19
2023-04-02T16:55:52.694Z,55.44
2023-04-02T16:58:35.574Z,50.83
2023-04-02T17:01:12.144Z,54.67
2023-04-02T17:04:06.671Z,51.83
2023-04-02T17:06:42.887Z,54.08
2023-04-02T17:10:25.983Z,51.61
2023-04-02T17:13:04.528Z,54.24
2023-04-02T17:15:39.103Z,51.59
2023-04-02T17:18:17.398Z,54.17
2023-04-02T17:20:45.796Z,53.52
2023-04-02T17:23:15.393Z,52.78
2023-04-02T17:25:51.515Z,55.57
2023-04-02T17:28:25.621Z,53.97
2023-04-02T17:30:58.639Z,54.14
2023-04-02T17:33:28.572Z,55.09
2023-04-02T17:36:26.591Z,57.20
2023-04-02T17:39:03.653Z,58.43
2023-04-02T17:41:37.975Z,58.22
2023-04-02T17:44:18.941Z,59.83
2023-04-02T17:46:59.714Z,60.42
2023-04-02T17:49:40.439Z,59.95
2023-04-02T17:52:18.733Z,62.23
2023-04-02T17:54:57.606Z,59.08
2023-04-02T17:57:40.555Z,60.21
2023-04-02T18:00:36.975Z,60.10
2023-04-02T18:03:37.097Z,61.86
2023-04-02T18:06:08.544Z,60.71
2023-04-02T18:08:45.651Z,62.67
2023-04-02T18:11:21.296Z,63.06
2023-04-02T18:13:58.682Z,62.55
2023-04-02T18:16:42.206Z,64.63
2023-04-02T18:19:17.192Z,63.16
2023-04-02T18:21:55.263Z,62.72
2023-04-02T18:24:51.675Z,63.20
2023-04-02T18:27:47.256Z,64.59
2023-04-02T18:30:23.376Z,65.83
2023-04-02T18:33:14.998Z,67.28
2023-04-02T18:35:55.952Z,68.64
2023-04-02T18:38:32.200Z,70.50
2023-04-02T18:41:15.774Z,71.17
2023-04-02T18:43:57.503Z,68.56
2023-04-02T18:46:34.161Z,70.46
2023-04-02T18:49:08.526Z,68.62
2023-04-02T18:51:40.353Z,70.12
2023-04-02T18:54:20.324Z,70.48
2023-04-02T18:56:48.444Z,69.69
2023-04-02T18:59:31.593Z,70.48
2023-04-02T19:02:05.816Z,71.72
2023-04-02T19:04:36.956Z,70.75
2023-04-02T19:07:08.607Z,72.36
2023-04-02T19:09:40.392Z,74.79
2023-04-02T19:12:16.788Z,72.33
2023-04-02T19:14:44.847Z,73.33
2023-04-02T19:17:24.140Z,75.55
2023-04-02T19:20:05.464Z,77.04
2023-04-02T19:22:40.930Z,82.42
2023-04-02T19:25:24.747Z,90.47
2023-04-02T19:28:13.211Z,96.98
2023-04-02T19:31:07.517Z,95.48
2023-04-02T19:33:57.535Z,94.63
2023-04-02T19:36:45.958Z,97.39
2023-04-02T19:39:55.497Z,89.19
2023-04-02T19:42:40.336Z,88.60
2023-04-02T19:45:22.913Z,86.68
2023-04-02T19:47:51.298Z,92.32
2023-04-02T19:50:19.641Z,85.60
2023-04-02T19:52:47.731Z,82.78
2023-04-02T19:55:16.122Z,80.57
2023-04-02T19:57:45.729Z,81.45
2023-04-02T20:00:15.758Z,82.64
2023-04-02T20:02:43.825Z,85.46
2023-04-02T20:05:12.289Z,85.42
2023-04-02T20:07:40.826Z,85.82
2023-04-02T20:10:10.399Z,87.55
2023-04-02T20:12:38.507Z,85.82
2023-04-02T20:15:09.447Z,87.06
2023-04-02T20:17:37.482Z,89.61
2023-04-02T20:20:06.728Z,91.12
2023-04-02T20:22:34.849Z,89.63
2023-04-02T20:25:02.910Z,92.31
2023-04-02T20:27:31.943Z,93.43
2023-04-02T20:30:00.016Z,92.41
2023-04-02T20:32:30.126Z,92.77
2023-04-02T20:34:58.308Z,93.66
2023-04-02T20:37:26.563Z,95.41
2023-04-02T20:39:54.837Z,94.79
2023-04-02T20:42:22.909Z,96.66
2023-04-02T20:44:51.214Z,97.18
2023-04-02T20:47:19.444Z,97.82
2023-04-02T20:49:50.271Z,97.18
2023-04-02T20:52:18.823Z,99.22
2023-04-02T20:54:47.097Z,99.71
2023-04-02T20:57:15.159Z,100.00
2023-04-02T20:59:43.267Z,100.00
2023-04-02T21:02:13.241Z,100.00
2023-04-02T21:04:41.357Z,100.00
2023-04-02T21:07:10.809Z,100.00
2023-04-02T21:09:38.902Z,100.00
2023-04-02T21:12:11.513Z,100.00
2023-04-02T21:14:40.285Z,100.00
2023-04-02T21:17:08.853Z,100.00
2023-04-02T21:19:37.007Z,100.00
2023-04-02T21:22:05.121Z,100.00
2023-04-02T21:24:34.490Z,100.00
2023-04-02T21:27:02.590Z,100.00
2023-04-02T21:29:30.730Z,100.00
2023-04-02T21:32:01.443Z,100.00
2023-04-02T21:34:31.606Z,100.00
2023-04-02T21:37:00.120Z,100.00
2023-04-02T21:39:28.758Z,100.00
2023-04-02T21:41:58.126Z,100.00
2023-04-02T21:44:26.288Z,100.00
2023-04-02T21:46:54.553Z,100.00
2023-04-02T21:49:23.900Z,100.00
2023-04-02T21:51:52.603Z,100.00
2023-04-02T21:54:20.916Z,100.00
2023-04-02T21:56:49.516Z,100.00
2023-04-02T21:59:19.528Z,100.00
2023-04-02T22:01:49.723Z,100.00
2023-04-02T22:04:19.832Z,100.00
2023-04-02T22:06:48.734Z,100.00
2023-04-02T22:09:19.130Z,100.00
2023-04-02T22:11:48.889Z,100.00
2023-04-02T22:14:18.658Z,100.00
2023-04-02T22:16:46.758Z,100.00
2023-04-02T22:19:16.896Z,100.00
2023-04-02T22:21:45.947Z,100.00
2023-04-02T22:24:18.162Z,100.00
2023-04-02T22:26:46.895Z,100.00
2023-04-02T22:29:15.908Z,100.00
2023-04-02T22:31:45.667Z,100.00
2023-04-02T22:34:13.936Z,100.00
2023-04-02T22:36:42.415Z,100.00
2023-04-02T22:39:12.363Z,100.00
2023-04-02T22:41:41.075Z,100.00
2023-04-02T22:44:13.835Z,100.00
2023-04-02T22:46:41.926Z,100.00
2023-04-02T22:49:12.647Z,100.00
2023-04-02T22:51:40.930Z,100.00
2023-04-02T22:54:08.912Z,100.00
2023-04-02T22:56:37.569Z,100.00
2023-04-02T22:59:05.818Z,100.00
2023-04-02T23:01:36.023Z,100.00
2023-04-02T23:04:05.399Z,100.00
2023-04-02T23:06:35.073Z,100.00
2023-04-02T23:09:04.210Z,100.00
2023-04-02T23:11:35.583Z,100.00
2023-04-02T23:14:03.615Z,100.00
2023-04-02T23:16:31.706Z,100.00
2023-04-02T23:18:59.813Z,100.00
2023-04-02T23:21:54.189Z,100.00
2023-04-02T23:24:22.428Z,100.00
2023-04-02T23:26:50.487Z,100.00
2023-04-02T23:29:18.578Z,100.00
2023-04-02T23:31:46.893Z,100.00
2023-04-02T23:34:15.190Z,100.00
2023-04-02T23:36:43.185Z,100.00
2023-04-02T23:39:14.432Z,100.00
2023-04-02T23:41:44.403Z,100.00
2023-04-02T23:44:12.846Z,100.00
2023-04-02T23:46:41.004Z,100.00
2023-04-02T23:49:12.199Z,100.00
2023-04-02T23:51:40.781Z,100.00
2023-04-02T23:54:08.949Z,100.00
2023-04-02T23:56:38.407Z,100.00
2023-04-02T23:59:06.688Z,100.00
